sensor_id;sensor_type;location;lat;lon;timestamp;pressure;altitude;pressure_sealevel;temperature;humidity
7026;BME280;3554;42.132;24.786;2023-05-02T00:00:43;98829.41;;;12.01;100.00
7026;BME280;3554;42.132;24.786;2023-05-02T00:03:11;98799.09;;;11.95;100.00
7026;BME280;3554;42.132;24.786;2023-05-02T00:05:38;98818.41;;;12.10;100.00
7026;BME280;3554;42.132;24.786;2023-05-02T00:08:06;98832.63;;;12.06;100.00
7026;BME280;3554;42.132;24.786;2023-05-02T00:10:33;98832.88;;;12.01;100.00
7026;BME280;3554;42.132;24.786;2023-05-02T00:13:00;98850.66;;;11.96;100.00
7026;BME280;3554;42.132;24.786;2023-05-02T00:15:27;98835.41;;;11.87;100.00
7026;BME280;3554;42.132;24.786;2023-05-02T00:17:54;98837.28;;;12.01;100.00
7026;BME280;3554;42.132;24.786;2023-05-02T00:20:21;98864.78;;;12.09;100.00
7026;BME280;3554;42.132;24.786;2023-05-02T00:22:47;98877.88;;;12.25;100.00
7026;BME280;3554;42.132;24.786;2023-05-02T00:25:16;98868.47;;;12.05;100.00
7026;BME280;3554;42.132;24.786;2023-05-02T00:27:43;98916.25;;;12.43;100.00
7026;BME280;3554;42.132;24.786;2023-05-02T00:30:11;98949.19;;;12.48;100.00
7026;BME280;3554;42.132;24.786;2023-05-02T00:32:38;98970.84;;;12.36;100.00
7026;BME280;3554;42.132;24.786;2023-05-02T00:35:06;98994.88;;;12.44;100.00
7026;BME280;3554;42.132;24.786;2023-05-02T00:37:33;99009.72;;;12.45;100.00
7026;BME280;3554;42.132;24.786;2023-05-02T00:39:59;99025.38;;;12.31;100.00
7026;BME280;3554;42.132;24.786;2023-05-02T00:42:29;99015.56;;;12.35;100.00
7026;BME280;3554;42.132;24.786;2023-05-02T00:44:57;99023.84;;;12.43;100.00
7026;BME280;3554;42.132;24.786;2023-05-02T00:47:24;99036.50;;;12.52;100.00
7026;BME280;3554;42.132;24.786;2023-05-02T00:49:51;99053.78;;;12.56;100.00
7026;BME280;3554;42.132;24.786;2023-05-02T00:52:18;99075.78;;;12.53;100.00
7026;BME280;3554;42.132;24.786;2023-05-02T00:54:46;99087.19;;;12.20;100.00
7026;BME280;3554;42.132;24.786;2023-05-02T00:57:13;99064.44;;;12.20;100.00
7026;BME280;3554;42.132;24.786;2023-05-02T00:59:41;99031.81;;;12.09;100.00
7026;BME280;3554;42.132;24.786;2023-05-02T01:02:21;99076.91;;;12.32;100.00
7026;BME280;3554;42.132;24.786;2023-05-02T01:04:55;99069.38;;;12.26;100.00
7026;BME280;3554;42.132;24.786;2023-05-02T01:07:36;99083.59;;;12.22;100.00
7026;BME280;3554;42.132;24.786;2023-05-02T01:10:16;99083.28;;;12.11;100.00
7026;BME280;3554;42.132;24.786;2023-05-02T01:12:53;99060.91;;;12.04;100.00
7026;BME280;3554;42.132;24.786;2023-05-02T01:15:25;99035.44;;;11.89;100.00
7026;BME280;3554;42.132;24.786;2023-05-02T01:17:54;99023.59;;;11.65;100.00
7026;BME280;3554;42.132;24.786;2023-05-02T01:20:24;98962.38;;;11.49;100.00
7026;BME280;3554;42.132;24.786;2023-05-02T01:22:53;98948.00;;;11.56;100.00
7026;BME280;3554;42.132;24.786;2023-05-02T01:25:28;98949.03;;;11.70;100.00
7026;BME280;3554;42.132;24.786;2023-05-02T01:28:04;98944.63;;;11.54;100.00
7026;BME280;3554;42.132;24.786;2023-05-02T01:30:37;98936.53;;;11.58;100.00
7026;BME280;3554;42.132;24.786;2023-05-02T01:33:10;98945.31;;;11.57;100.00
7026;BME280;3554;42.132;24.786;2023-05-02T01:35:37;98948.19;;;11.53;100.00
7026;BME280;3554;42.132;24.786;2023-05-02T01:38:05;98954.41;;;11.50;100.00
7026;BME280;3554;42.132;24.786;2023-05-02T01:40:33;98829.72;;;10.79;100.00
7026;BME280;3554;42.132;24.786;2023-05-02T01:43:03;98952.56;;;11.52;100.00
7026;BME280;3554;42.132;24.786;2023-05-02T01:45:34;98967.06;;;11.42;100.00
7026;BME280;3554;42.132;24.786;2023-05-02T01:48:05;98959.81;;;11.47;100.00
7026;BME280;3554;42.132;24.786;2023-05-02T01:50:33;98980.53;;;11.52;100.00
7026;BME280;3554;42.132;24.786;2023-05-02T01:53:00;98995.28;;;11.37;100.00
7026;BME280;3554;42.132;24.786;2023-05-02T01:55:30;99013.38;;;11.42;100.00
7026;BME280;3554;42.132;24.786;2023-05-02T01:57:59;99014.78;;;11.49;100.00
7026;BME280;3554;42.132;24.786;2023-05-02T02:00:28;99040.97;;;11.49;100.00
7026;BME280;3554;42.132;24.786;2023-05-02T02:02:56;99060.41;;;11.45;100.00
7026;BME280;3554;42.132;24.786;2023-05-02T02:05:26;99077.25;;;11.39;100.00
7026;BME280;3554;42.132;24.786;2023-05-02T02:07:53;99114.34;;;11.32;100.00
7026;BME280;3554;42.132;24.786;2023-05-02T02:10:21;99141.94;;;11.20;100.00
7026;BME280;3554;42.132;24.786;2023-05-02T02:12:51;99181.47;;;11.16;100.00
7026;BME280;3554;42.132;24.786;2023-05-02T02:15:22;99179.69;;;11.16;100.00
7026;BME280;3554;42.132;24.786;2023-05-02T02:17:56;99196.38;;;11.32;100.00
7026;BME280;3554;42.132;24.786;2023-05-02T02:20:26;99217.06;;;11.20;100.00
7026;BME280;3554;42.132;24.786;2023-05-02T02:22:54;99214.50;;;11.18;100.00
7026;BME280;3554;42.132;24.786;2023-05-02T02:25:22;99195.81;;;11.07;100.00
7026;BME280;3554;42.132;24.786;2023-05-02T02:27:50;99212.41;;;11.26;100.00
7026;BME280;3554;42.132;24.786;2023-05-02T02:30:17;99219.69;;;11.01;100.00
7026;BME280;3554;42.132;24.786;2023-05-02T02:32:44;99217.34;;;11.14;100.00
7026;BME280;3554;42.132;24.786;2023-05-02T02:35:10;99220.16;;;11.09;100.00
7026;BME280;3554;42.132;24.786;2023-05-02T02:37:41;99221.59;;;11.16;100.00
7026;BME280;3554;42.132;24.786;2023-05-02T02:40:16;99222.44;;;11.17;100.00
7026;BME280;3554;42.132;24.786;2023-05-02T02:42:49;99214.69;;;11.34;100.00
7026;BME280;3554;42.132;24.786;2023-05-02T02:45:25;99238.31;;;11.32;100.00
7026;BME280;3554;42.132;24.786;2023-05-02T02:48:02;99242.56;;;11.35;100.00
7026;BME280;3554;42.132;24.786;2023-05-02T02:50:38;99251.94;;;11.40;100.00
7026;BME280;3554;42.132;24.786;2023-05-02T02:53:16;99267.03;;;11.35;100.00
7026;BME280;3554;42.132;24.786;2023-05-02T02:55:46;99272.44;;;11.31;100.00
7026;BME280;3554;42.132;24.786;2023-05-02T02:58:23;99260.53;;;11.24;100.00
7026;BME280;3554;42.132;24.786;2023-05-02T03:00:53;99280.84;;;11.39;100.00
7026;BME280;3554;42.132;24.786;2023-05-02T03:03:21;99314.69;;;11.23;100.00
7026;BME280;3554;42.132;24.786;2023-05-02T03:05:55;99308.41;;;11.27;100.00
7026;BME280;3554;42.132;24.786;2023-05-02T03:08:24;99303.78;;;11.34;100.00
7026;BME280;3554;42.132;24.786;2023-05-02T03:10:51;99316.03;;;11.33;100.00
7026;BME280;3554;42.132;24.786;2023-05-02T03:13:18;99325.56;;;11.34;100.00
7026;BME280;3554;42.132;24.786;2023-05-02T03:18:46;99348.25;;;11.54;100.00
7026;BME280;3554;42.132;24.786;2023-05-02T03:21:13;99355.72;;;11.44;100.00
7026;BME280;3554;42.132;24.786;2023-05-02T03:23:41;99366.31;;;11.41;100.00
7026;BME280;3554;42.132;24.786;2023-05-02T03:26:08;99354.78;;;11.45;100.00
7026;BME280;3554;42.132;24.786;2023-05-02T03:28:35;99334.25;;;11.55;100.00
7026;BME280;3554;42.132;24.786;2023-05-02T03:31:01;99346.69;;;11.50;100.00
7026;BME280;3554;42.132;24.786;2023-05-02T03:33:28;99368.25;;;11.56;100.00
7026;BME280;3554;42.132;24.786;2023-05-02T03:35:55;99365.97;;;11.49;100.00
7026;BME280;3554;42.132;24.786;2023-05-02T03:38:22;99353.00;;;11.46;100.00
7026;BME280;3554;42.132;24.786;2023-05-02T03:40:50;99376.97;;;11.77;100.00
7026;BME280;3554;42.132;24.786;2023-05-02T03:43:16;99388.97;;;12.01;100.00
7026;BME280;3554;42.132;24.786;2023-05-02T03:45:43;99393.28;;;12.21;100.00
7026;BME280;3554;42.132;24.786;2023-05-02T03:48:10;99402.25;;;12.52;100.00
7026;BME280;3554;42.132;24.786;2023-05-02T03:50:37;99412.97;;;12.83;100.00
7026;BME280;3554;42.132;24.786;2023-05-02T03:53:03;99458.28;;;13.24;100.00
7026;BME280;3554;42.132;24.786;2023-05-02T03:55:30;99511.84;;;13.39;100.00
7026;BME280;3554;42.132;24.786;2023-05-02T03:57:59;99569.41;;;13.62;100.00
7026;BME280;3554;42.132;24.786;2023-05-02T04:00:28;99608.66;;;13.83;100.00
7026;BME280;3554;42.132;24.786;2023-05-02T04:02:55;99644.22;;;14.09;100.00
7026;BME280;3554;42.132;24.786;2023-05-02T04:05:21;99691.22;;;14.17;100.00
7026;BME280;3554;42.132;24.786;2023-05-02T04:07:48;99714.69;;;14.21;100.00
7026;BME280;3554;42.132;24.786;2023-05-02T04:10:15;99718.44;;;14.51;100.00
7026;BME280;3554;42.132;24.786;2023-05-02T04:12:42;99709.19;;;14.60;100.00
7026;BME280;3554;42.132;24.786;2023-05-02T04:15:11;99702.69;;;14.84;100.00
7026;BME280;3554;42.132;24.786;2023-05-02T04:17:38;99719.31;;;15.01;100.00
7026;BME280;3554;42.132;24.786;2023-05-02T04:20:06;99732.13;;;15.25;100.00
7026;BME280;3554;42.132;24.786;2023-05-02T04:22:33;99754.66;;;15.30;100.00
7026;BME280;3554;42.132;24.786;2023-05-02T04:25:00;99774.38;;;15.40;100.00
7026;BME280;3554;42.132;24.786;2023-05-02T04:27:27;99787.69;;;15.37;100.00
7026;BME280;3554;42.132;24.786;2023-05-02T04:29:54;99776.53;;;15.32;100.00
7026;BME280;3554;42.132;24.786;2023-05-02T04:32:22;99778.63;;;15.26;100.00
7026;BME280;3554;42.132;24.786;2023-05-02T04:34:49;99766.31;;;15.59;100.00
7026;BME280;3554;42.132;24.786;2023-05-02T04:37:16;99803.00;;;15.63;100.00
7026;BME280;3554;42.132;24.786;2023-05-02T04:39:43;99816.88;;;15.67;100.00
7026;BME280;3554;42.132;24.786;2023-05-02T04:42:10;99834.19;;;15.72;100.00
7026;BME280;3554;42.132;24.786;2023-05-02T04:44:37;99837.28;;;15.96;100.00
7026;BME280;3554;42.132;24.786;2023-05-02T04:47:04;99843.47;;;15.95;100.00
7026;BME280;3554;42.132;24.786;2023-05-02T04:49:32;99840.50;;;16.01;100.00
7026;BME280;3554;42.132;24.786;2023-05-02T04:51:58;99845.88;;;16.15;100.00
7026;BME280;3554;42.132;24.786;2023-05-02T04:54:25;99852.72;;;16.19;100.00
7026;BME280;3554;42.132;24.786;2023-05-02T04:56:52;99865.38;;;15.97;100.00
7026;BME280;3554;42.132;24.786;2023-05-02T04:59:19;99874.16;;;15.97;100.00
7026;BME280;3554;42.132;24.786;2023-05-02T05:01:45;99884.72;;;15.97;100.00
7026;BME280;3554;42.132;24.786;2023-05-02T05:04:12;99874.84;;;16.01;100.00
7026;BME280;3554;42.132;24.786;2023-05-02T05:06:40;99874.44;;;15.93;100.00
7026;BME280;3554;42.132;24.786;2023-05-02T05:09:08;99875.16;;;15.95;100.00
7026;BME280;3554;42.132;24.786;2023-05-02T05:11:34;99870.44;;;16.01;100.00
7026;BME280;3554;42.132;24.786;2023-05-02T05:14:02;99856.00;;;15.43;100.00
7026;BME280;3554;42.132;24.786;2023-05-02T05:16:29;99840.75;;;15.31;100.00
7026;BME280;3554;42.132;24.786;2023-05-02T05:18:56;99841.19;;;15.89;100.00
7026;BME280;3554;42.132;24.786;2023-05-02T05:21:23;99839.16;;;15.46;100.00
7026;BME280;3554;42.132;24.786;2023-05-02T05:23:52;99829.50;;;15.77;100.00
7026;BME280;3554;42.132;24.786;2023-05-02T05:26:18;99821.63;;;15.45;100.00
7026;BME280;3554;42.132;24.786;2023-05-02T05:28:46;99795.38;;;15.74;100.00
7026;BME280;3554;42.132;24.786;2023-05-02T05:31:14;99799.88;;;16.19;100.00
7026;BME280;3554;42.132;24.786;2023-05-02T05:33:41;99797.50;;;16.30;100.00
7026;BME280;3554;42.132;24.786;2023-05-02T05:36:10;99827.09;;;16.82;100.00
7026;BME280;3554;42.132;24.786;2023-05-02T05:38:37;99827.81;;;16.84;100.00
7026;BME280;3554;42.132;24.786;2023-05-02T05:41:05;99787.28;;;16.69;100.00
7026;BME280;3554;42.132;24.786;2023-05-02T05:43:33;99831.66;;;17.08;100.00
7026;BME280;3554;42.132;24.786;2023-05-02T05:46:00;99844.22;;;17.04;100.00
7026;BME280;3554;42.132;24.786;2023-05-02T05:48:27;99856.75;;;16.87;100.00
7026;BME280;3554;42.132;24.786;2023-05-02T05:50:54;99856.41;;;17.07;100.00
7026;BME280;3554;42.132;24.786;2023-05-02T05:53:20;99877.13;;;17.14;100.00
7026;BME280;3554;42.132;24.786;2023-05-02T05:55:47;99864.81;;;16.99;100.00
7026;BME280;3554;42.132;24.786;2023-05-02T05:58:15;99848.78;;;17.17;100.00
7026;BME280;3554;42.132;24.786;2023-05-02T06:00:42;99849.56;;;16.89;100.00
7026;BME280;3554;42.132;24.786;2023-05-02T06:03:09;99837.28;;;17.32;100.00
7026;BME280;3554;42.132;24.786;2023-05-02T06:05:35;99863.50;;;17.50;100.00
7026;BME280;3554;42.132;24.786;2023-05-02T06:08:03;99871.09;;;17.70;100.00
7026;BME280;3554;42.132;24.786;2023-05-02T06:10:33;99893.03;;;17.29;100.00
7026;BME280;3554;42.132;24.786;2023-05-02T06:13:00;99871.00;;;17.72;100.00
7026;BME280;3554;42.132;24.786;2023-05-02T06:15:28;99873.38;;;17.90;100.00
7026;BME280;3554;42.132;24.786;2023-05-02T06:17:55;99884.69;;;17.78;100.00
7026;BME280;3554;42.132;24.786;2023-05-02T06:20:21;99864.09;;;17.97;100.00
7026;BME280;3554;42.132;24.786;2023-05-02T06:22:48;99890.09;;;18.19;100.00
7026;BME280;3554;42.132;24.786;2023-05-02T06:25:15;99865.19;;;18.07;100.00
7026;BME280;3554;42.132;24.786;2023-05-02T06:27:42;99850.00;;;17.55;100.00
7026;BME280;3554;42.132;24.786;2023-05-02T06:30:09;99904.28;;;17.48;100.00
7026;BME280;3554;42.132;24.786;2023-05-02T06:32:37;99905.97;;;17.63;100.00
7026;BME280;3554;42.132;24.786;2023-05-02T06:35:05;99895.88;;;17.97;100.00
7026;BME280;3554;42.132;24.786;2023-05-02T06:37:33;99916.50;;;18.06;100.00
7026;BME280;3554;42.132;24.786;2023-05-02T06:40:00;99920.94;;;18.06;100.00
7026;BME280;3554;42.132;24.786;2023-05-02T06:42:27;99945.56;;;17.94;100.00
7026;BME280;3554;42.132;24.786;2023-05-02T06:44:54;99937.19;;;17.58;100.00
7026;BME280;3554;42.132;24.786;2023-05-02T06:47:21;99987.44;;;17.87;100.00
7026;BME280;3554;42.132;24.786;2023-05-02T06:49:50;99987.63;;;17.84;100.00
7026;BME280;3554;42.132;24.786;2023-05-02T06:52:17;99992.22;;;17.67;100.00
7026;BME280;3554;42.132;24.786;2023-05-02T06:54:44;99991.97;;;17.85;100.00
7026;BME280;3554;42.132;24.786;2023-05-02T06:57:10;100013.41;;;17.67;100.00
7026;BME280;3554;42.132;24.786;2023-05-02T06:59:37;99999.06;;;17.71;100.00
7026;BME280;3554;42.132;24.786;2023-05-02T07:02:04;100001.09;;;17.66;100.00
7026;BME280;3554;42.132;24.786;2023-05-02T07:04:31;100000.97;;;17.97;100.00
7026;BME280;3554;42.132;24.786;2023-05-02T07:06:59;100008.06;;;17.96;100.00
7026;BME280;3554;42.132;24.786;2023-05-02T07:09:26;100003.06;;;18.06;100.00
7026;BME280;3554;42.132;24.786;2023-05-02T07:11:52;100004.44;;;18.41;100.00
7026;BME280;3554;42.132;24.786;2023-05-02T07:14:19;100002.25;;;18.48;100.00
7026;BME280;3554;42.132;24.786;2023-05-02T07:16:46;100003.06;;;18.34;100.00
7026;BME280;3554;42.132;24.786;2023-05-02T07:19:13;100013.94;;;18.86;100.00
7026;BME280;3554;42.132;24.786;2023-05-02T07:21:41;100006.94;;;18.71;99.05
7026;BME280;3554;42.132;24.786;2023-05-02T07:24:09;100012.19;;;18.58;99.97
7026;BME280;3554;42.132;24.786;2023-05-02T07:26:35;100009.50;;;18.30;100.00
7026;BME280;3554;42.132;24.786;2023-05-02T07:29:02;100002.25;;;18.48;100.00
7026;BME280;3554;42.132;24.786;2023-05-02T07:31:31;100004.34;;;18.83;100.00
7026;BME280;3554;42.132;24.786;2023-05-02T07:33:57;100011.69;;;19.06;100.00
7026;BME280;3554;42.132;24.786;2023-05-02T07:36:24;99992.94;;;19.09;100.00
7026;BME280;3554;42.132;24.786;2023-05-02T07:38:52;100008.53;;;18.87;100.00
7026;BME280;3554;42.132;24.786;2023-05-02T07:41:20;99991.84;;;18.85;100.00
7026;BME280;3554;42.132;24.786;2023-05-02T07:43:47;99996.88;;;18.90;100.00
7026;BME280;3554;42.132;24.786;2023-05-02T07:46:13;99986.50;;;18.99;100.00
7026;BME280;3554;42.132;24.786;2023-05-02T07:48:40;99995.75;;;19.20;99.85
7026;BME280;3554;42.132;24.786;2023-05-02T07:51:08;99992.84;;;19.38;98.89
7026;BME280;3554;42.132;24.786;2023-05-02T07:53:34;99991.97;;;19.10;94.36
7026;BME280;3554;42.132;24.786;2023-05-02T07:56:02;99987.13;;;19.30;87.43
7026;BME280;3554;42.132;24.786;2023-05-02T07:58:31;99984.34;;;19.33;81.17
7026;BME280;3554;42.132;24.786;2023-05-02T08:00:57;99990.34;;;19.61;83.33
7026;BME280;3554;42.132;24.786;2023-05-02T08:03:24;99983.84;;;19.40;76.93
7026;BME280;3554;42.132;24.786;2023-05-02T08:05:52;99988.28;;;19.40;73.42
7026;BME280;3554;42.132;24.786;2023-05-02T08:08:19;99985.19;;;19.46;70.92
7026;BME280;3554;42.132;24.786;2023-05-02T08:10:46;99994.66;;;19.50;71.64
7026;BME280;3554;42.132;24.786;2023-05-02T08:13:12;99990.47;;;19.60;69.23
7026;BME280;3554;42.132;24.786;2023-05-02T08:15:40;99977.25;;;19.58;64.13
7026;BME280;3554;42.132;24.786;2023-05-02T08:18:07;99979.41;;;19.66;66.16
7026;BME280;3554;42.132;24.786;2023-05-02T08:20:34;99989.31;;;19.89;59.35
7026;BME280;3554;42.132;24.786;2023-05-02T08:23:01;99990.22;;;19.50;58.76
7026;BME280;3554;42.132;24.786;2023-05-02T08:25:28;99977.94;;;19.35;62.56
7026;BME280;3554;42.132;24.786;2023-05-02T08:27:55;99984.06;;;19.50;62.12
7026;BME280;3554;42.132;24.786;2023-05-02T08:30:21;99970.66;;;19.24;62.14
7026;BME280;3554;42.132;24.786;2023-05-02T08:32:50;99976.91;;;19.38;60.25
7026;BME280;3554;42.132;24.786;2023-05-02T08:35:17;99976.13;;;19.75;61.58
7026;BME280;3554;42.132;24.786;2023-05-02T08:37:43;99971.34;;;19.80;57.96
7026;BME280;3554;42.132;24.786;2023-05-02T08:40:11;99972.53;;;19.76;58.23
7026;BME280;3554;42.132;24.786;2023-05-02T08:42:40;99968.56;;;19.56;57.54
7026;BME280;3554;42.132;24.786;2023-05-02T08:45:10;99958.25;;;19.64;60.00
7026;BME280;3554;42.132;24.786;2023-05-02T08:47:39;99963.72;;;19.88;58.83
7026;BME280;3554;42.132;24.786;2023-05-02T08:50:08;99957.53;;;20.00;53.89
7026;BME280;3554;42.132;24.786;2023-05-02T08:52:36;99937.34;;;20.22;55.75
7026;BME280;3554;42.132;24.786;2023-05-02T08:55:04;99945.59;;;20.56;53.95
7026;BME280;3554;42.132;24.786;2023-05-02T08:57:31;99969.75;;;20.40;49.77
7026;BME280;3554;42.132;24.786;2023-05-02T08:59:58;99969.44;;;19.94;54.41
7026;BME280;3554;42.132;24.786;2023-05-02T09:02:42;99966.66;;;19.96;52.58
7026;BME280;3554;42.132;24.786;2023-05-02T09:05:18;99911.50;;;19.62;54.96
7026;BME280;3554;42.132;24.786;2023-05-02T09:07:46;99947.94;;;20.10;56.59
7026;BME280;3554;42.132;24.786;2023-05-02T09:10:13;99932.00;;;20.10;51.60
7026;BME280;3554;42.132;24.786;2023-05-02T09:12:40;99929.69;;;19.80;46.36
7026;BME280;3554;42.132;24.786;2023-05-02T09:15:08;99911.94;;;19.68;45.99
7026;BME280;3554;42.132;24.786;2023-05-02T09:17:39;99926.38;;;20.02;49.15
7026;BME280;3554;42.132;24.786;2023-05-02T09:20:07;99926.59;;;20.24;50.31
7026;BME280;3554;42.132;24.786;2023-05-02T09:22:37;99934.66;;;20.35;47.93
7026;BME280;3554;42.132;24.786;2023-05-02T09:25:05;99940.59;;;20.39;43.99
7026;BME280;3554;42.132;24.786;2023-05-02T09:27:50;99933.94;;;20.20;45.39
7026;BME280;3554;42.132;24.786;2023-05-02T09:30:18;99878.78;;;19.99;45.47
7026;BME280;3554;42.132;24.786;2023-05-02T09:32:53;99929.47;;;20.21;44.09
7026;BME280;3554;42.132;24.786;2023-05-02T09:35:20;99921.38;;;20.22;45.46
7026;BME280;3554;42.132;24.786;2023-05-02T09:37:50;99911.19;;;20.16;48.46
7026;BME280;3554;42.132;24.786;2023-05-02T09:40:17;99925.53;;;20.27;43.90
7026;BME280;3554;42.132;24.786;2023-05-02T09:42:45;99923.38;;;20.32;42.39
7026;BME280;3554;42.132;24.786;2023-05-02T09:45:21;99941.81;;;19.97;39.80
7026;BME280;3554;42.132;24.786;2023-05-02T09:47:49;99924.25;;;19.94;40.19
7026;BME280;3554;42.132;24.786;2023-05-02T09:50:33;99891.31;;;20.22;43.81
7026;BME280;3554;42.132;24.786;2023-05-02T09:53:02;99904.13;;;20.15;40.28
7026;BME280;3554;42.132;24.786;2023-05-02T09:55:29;99897.44;;;20.22;41.89
7026;BME280;3554;42.132;24.786;2023-05-02T09:57:56;99893.97;;;20.22;42.99
7026;BME280;3554;42.132;24.786;2023-05-02T10:00:37;99895.03;;;20.19;42.23
7026;BME280;3554;42.132;24.786;2023-05-02T10:03:05;99903.09;;;20.31;40.81
7026;BME280;3554;42.132;24.786;2023-05-02T10:05:35;99852.88;;;20.13;41.18
7026;BME280;3554;42.132;24.786;2023-05-02T10:08:04;99890.78;;;20.53;43.41
7026;BME280;3554;42.132;24.786;2023-05-02T10:10:32;99878.66;;;20.26;42.76
7026;BME280;3554;42.132;24.786;2023-05-02T10:13:02;99846.94;;;20.10;43.67
7026;BME280;3554;42.132;24.786;2023-05-02T10:15:30;99875.22;;;20.36;45.43
7026;BME280;3554;42.132;24.786;2023-05-02T10:17:59;99885.19;;;20.45;40.16
7026;BME280;3554;42.132;24.786;2023-05-02T10:20:29;99856.28;;;20.28;41.32
7026;BME280;3554;42.132;24.786;2023-05-02T10:23:00;99869.22;;;20.45;40.42
7026;BME280;3554;42.132;24.786;2023-05-02T10:25:27;99872.03;;;20.55;41.88
7026;BME280;3554;42.132;24.786;2023-05-02T10:27:55;99877.16;;;20.58;42.17
7026;BME280;3554;42.132;24.786;2023-05-02T10:30:24;99887.25;;;20.53;40.69
7026;BME280;3554;42.132;24.786;2023-05-02T10:32:52;99874.75;;;20.42;41.30
7026;BME280;3554;42.132;24.786;2023-05-02T10:35:19;99858.34;;;20.48;42.36
7026;BME280;3554;42.132;24.786;2023-05-02T10:37:47;99863.19;;;20.54;43.41
7026;BME280;3554;42.132;24.786;2023-05-02T10:40:17;99864.88;;;20.68;43.24
7026;BME280;3554;42.132;24.786;2023-05-02T10:42:46;99851.56;;;20.68;41.71
7026;BME280;3554;42.132;24.786;2023-05-02T10:45:29;99847.16;;;20.56;41.84
7026;BME280;3554;42.132;24.786;2023-05-02T10:48:14;99848.97;;;20.55;39.37
7026;BME280;3554;42.132;24.786;2023-05-02T10:50:45;99862.88;;;20.59;39.44
7026;BME280;3554;42.132;24.786;2023-05-02T10:53:26;99868.72;;;20.64;40.42
7026;BME280;3554;42.132;24.786;2023-05-02T10:56:15;99842.66;;;20.80;42.22
7026;BME280;3554;42.132;24.786;2023-05-02T10:58:43;99848.78;;;20.93;39.43
7026;BME280;3554;42.132;24.786;2023-05-02T11:01:35;99848.25;;;21.11;40.67
7026;BME280;3554;42.132;24.786;2023-05-02T11:04:09;99859.97;;;20.85;38.79
7026;BME280;3554;42.132;24.786;2023-05-02T11:09:47;99862.47;;;20.76;38.66
7026;BME280;3554;42.132;24.786;2023-05-02T11:12:45;99838.34;;;20.90;39.19
7026;BME280;3554;42.132;24.786;2023-05-02T11:15:13;99859.63;;;21.13;38.48
7026;BME280;3554;42.132;24.786;2023-05-02T11:17:59;99838.69;;;21.09;38.66
7026;BME280;3554;42.132;24.786;2023-05-02T11:20:27;99833.00;;;21.13;37.39
7026;BME280;3554;42.132;24.786;2023-05-02T11:22:56;99829.19;;;21.28;37.95
7026;BME280;3554;42.132;24.786;2023-05-02T11:25:37;99839.25;;;21.47;37.96
7026;BME280;3554;42.132;24.786;2023-05-02T11:28:07;99839.81;;;21.40;37.09
7026;BME280;3554;42.132;24.786;2023-05-02T11:30:53;99837.84;;;21.08;37.24
7026;BME280;3554;42.132;24.786;2023-05-02T11:33:20;99831.56;;;21.20;38.72
7026;BME280;3554;42.132;24.786;2023-05-02T11:35:47;99823.38;;;21.23;38.24
7026;BME280;3554;42.132;24.786;2023-05-02T11:38:17;99817.66;;;21.28;38.43
7026;BME280;3554;42.132;24.786;2023-05-02T11:40:55;99813.53;;;21.24;38.79
7026;BME280;3554;42.132;24.786;2023-05-02T11:43:25;99816.31;;;21.22;38.01
7026;BME280;3554;42.132;24.786;2023-05-02T11:45:53;99807.16;;;21.38;37.06
7026;BME280;3554;42.132;24.786;2023-05-02T11:48:22;99812.59;;;21.36;37.34
7026;BME280;3554;42.132;24.786;2023-05-02T11:50:53;99833.31;;;21.55;38.13
7026;BME280;3554;42.132;24.786;2023-05-02T11:53:22;99783.31;;;21.69;37.84
7026;BME280;3554;42.132;24.786;2023-05-02T11:55:50;99786.69;;;21.38;38.30
7026;BME280;3554;42.132;24.786;2023-05-02T11:58:19;99809.59;;;21.52;38.40
7026;BME280;3554;42.132;24.786;2023-05-02T12:00:47;99795.31;;;21.75;39.40
7026;BME280;3554;42.132;24.786;2023-05-02T12:03:27;99765.75;;;21.45;37.86
7026;BME280;3554;42.132;24.786;2023-05-02T12:05:55;99781.25;;;21.62;38.73
7026;BME280;3554;42.132;24.786;2023-05-02T12:08:23;99777.25;;;21.67;38.35
7026;BME280;3554;42.132;24.786;2023-05-02T12:10:52;99784.25;;;21.68;38.83
7026;BME280;3554;42.132;24.786;2023-05-02T12:13:20;99779.31;;;21.75;37.53
7026;BME280;3554;42.132;24.786;2023-05-02T12:15:49;99765.63;;;21.79;38.91
7026;BME280;3554;42.132;24.786;2023-05-02T12:18:18;99799.44;;;21.68;37.82
7026;BME280;3554;42.132;24.786;2023-05-02T12:20:48;99814.81;;;21.53;36.58
7026;BME280;3554;42.132;24.786;2023-05-02T12:23:16;99806.31;;;21.70;36.96
7026;BME280;3554;42.132;24.786;2023-05-02T12:25:43;99766.94;;;21.74;36.14
7026;BME280;3554;42.132;24.786;2023-05-02T12:28:10;99778.19;;;21.77;36.11
7026;BME280;3554;42.132;24.786;2023-05-02T12:30:37;99752.06;;;21.71;36.20
7026;BME280;3554;42.132;24.786;2023-05-02T12:33:07;99765.25;;;21.73;36.44
7026;BME280;3554;42.132;24.786;2023-05-02T12:35:34;99762.84;;;21.81;36.31
7026;BME280;3554;42.132;24.786;2023-05-02T12:38:09;99740.53;;;21.71;36.31
7026;BME280;3554;42.132;24.786;2023-05-02T12:40:37;99736.28;;;21.68;36.03
7026;BME280;3554;42.132;24.786;2023-05-02T12:43:04;99741.63;;;21.90;36.86
7026;BME280;3554;42.132;24.786;2023-05-02T12:45:36;99722.97;;;21.90;35.96
7026;BME280;3554;42.132;24.786;2023-05-02T12:48:18;99748.50;;;22.04;35.18
7026;BME280;3554;42.132;24.786;2023-05-02T12:50:46;99719.31;;;21.91;35.50
7026;BME280;3554;42.132;24.786;2023-05-02T12:53:13;99698.63;;;21.73;36.27
7026;BME280;3554;42.132;24.786;2023-05-02T12:55:40;99705.06;;;21.81;36.17
7026;BME280;3554;42.132;24.786;2023-05-02T12:58:08;99663.72;;;21.76;37.13
7026;BME280;3554;42.132;24.786;2023-05-02T13:00:37;99698.97;;;22.01;37.38
7026;BME280;3554;42.132;24.786;2023-05-02T13:03:04;99697.09;;;22.13;36.72
7026;BME280;3554;42.132;24.786;2023-05-02T13:05:33;99695.78;;;22.07;36.30
7026;BME280;3554;42.132;24.786;2023-05-02T13:08:00;99692.34;;;22.16;36.14
7026;BME280;3554;42.132;24.786;2023-05-02T13:10:27;99704.56;;;22.30;35.96
7026;BME280;3554;42.132;24.786;2023-05-02T13:12:54;99684.84;;;22.42;35.69
7026;BME280;3554;42.132;24.786;2023-05-02T13:15:21;99678.94;;;22.07;34.95
7026;BME280;3554;42.132;24.786;2023-05-02T13:17:49;99693.66;;;22.22;36.44
7026;BME280;3554;42.132;24.786;2023-05-02T13:20:17;99672.78;;;22.27;35.45